Lake Elsinore, CA (92530)

4:48 PM PDT on April 21, 2015 (GMT -0700)
The Grove | | Change Station
CLOSE
Current Station
Personal Weather Station
Location: Lake Elsinore, CA
Elevation: 1358 ft
Nearby Weather Stations

Elev 1358 ft 33.70 °N, 117.34 °W | Updated 7 minutes ago

Overcast
Overcast
65.1 °F
Feels Like 65.1 °F
N
3.7
Wind Variable Wind from SSW

Today
High -- | Low -- °F
--% Chance of Precip.
Yesterday
High -- | Low -- °F
Precip. -- in
6:11 AM 7:24 PM
Waxing Crescent, 13% visible
Pressure 29.89 in
Visibility 10.0 miles
Clouds Overcast 3800 ft
Dew Point 47 °F
Humidity 52%
Rainfall 0.00 in
Snow Depth Not available.
UV 1 out of 12
Pollen 6.70 out of 12
Air Quality Not available.
Flu Activity Sporadic
METAR KF70 212335Z AUTO 24003KT 10SM OVC038 16/07 A2989 RMK AO1

More Conditions Fewer Conditions

Pressure 29.89 in
Visibility 10.0 miles
Clouds Overcast 3800 ft
Dew Point 47 °F
Humidity 52%
Rainfall 0.00 in
Snow Depth Not available.
UV 1 out of 12
Pollen 6.70 out of 12
Air Quality Not available.
Flu Activity Sporadic
METAR KF70 212335Z AUTO 24003KT 10SM OVC038 16/07 A2989 RMK AO1

More Conditions Fewer Conditions

10-Day Weather Forecast

Almanac

Astronomy

Apr. 21, 2015 Rise Set
Actual Time
Civil Twilight
Nautical Twilight
Astronomical Twilight
Moon
Length of Visible Light
Length of Day
Tomorrow will be .
, % of the Moon is Illuminated

Today's Extremes

State Highs State Lows

Community

WunderPhotos

Upload Photos

1,815,583 photos uploaded!

WunderBlogs® & News

Nearby

Air Quality

  Air Quality AQ Index Pollutant
Not available.

Snow Depth

Station Depth Elevation

Earthquake Activity

City Distance Mag. Time & Date
Minimum magnitude displayed is 2.5.

Coastal Water Temperatures

Place Temperature

Stations

Nearby Weather Stations

Station Location Temp. Windchill Dew Point Humidity Wind Precip. Elev Updated Type